createdAt,value
2023-02-09T00:01:30.862Z,16.42
2023-02-09T00:03:59.423Z,15.65
2023-02-09T00:06:29.955Z,14.45
2023-02-09T00:08:58.128Z,15.80
2023-02-09T00:11:43.128Z,15.73
2023-02-09T00:14:11.353Z,15.57
2023-02-09T00:16:39.098Z,19.05
2023-02-09T00:19:07.022Z,18.92
2023-02-09T00:21:35.035Z,18.63
2023-02-09T00:24:02.662Z,19.13
2023-02-09T00:26:32.138Z,19.95
2023-02-09T00:29:00.145Z,18.80
2023-02-09T00:31:27.833Z,19.92
2023-02-09T00:33:55.955Z,19.85
2023-02-09T00:36:23.667Z,19.83
2023-02-09T00:38:51.373Z,19.98
2023-02-09T00:41:39.129Z,18.30
2023-02-09T00:44:08.145Z,19.73
2023-02-09T00:46:36.381Z,19.52
2023-02-09T00:49:04.269Z,19.58
2023-02-09T00:51:32.014Z,20.58
2023-02-09T00:53:59.668Z,19.40
2023-02-09T00:56:27.468Z,17.60
2023-02-09T00:58:55.186Z,18.23
2023-02-09T01:01:24.461Z,18.20
2023-02-09T01:03:52.198Z,18.05
2023-02-09T01:06:19.975Z,19.25
2023-02-09T01:08:47.689Z,17.42
2023-02-09T01:11:16.822Z,16.90
2023-02-09T01:13:45.768Z,17.05
2023-02-09T01:16:17.037Z,18.05
2023-02-09T01:18:46.200Z,18.23
2023-02-09T01:21:15.450Z,19.88
2023-02-09T01:23:43.353Z,18.30
2023-02-09T01:26:12.952Z,17.90
2023-02-09T01:28:41.038Z,18.85
2023-02-09T01:31:20.430Z,17.67
2023-02-09T01:33:49.594Z,17.73
2023-02-09T01:36:17.622Z,18.77
2023-02-09T01:38:45.685Z,18.00
2023-02-09T01:41:13.629Z,18.98
2023-02-09T01:43:56.437Z,20.15
2023-02-09T01:46:25.422Z,19.52
2023-02-09T01:48:59.864Z,19.42
2023-02-09T01:51:28.438Z,18.55
2023-02-09T01:53:56.872Z,17.35
2023-02-09T01:56:30.847Z,17.45
2023-02-09T01:58:59.711Z,18.05
2023-02-09T02:01:27.751Z,18.10
2023-02-09T02:03:57.060Z,18.58
2023-02-09T02:06:24.864Z,20.77
2023-02-09T02:08:57.401Z,18.67
2023-02-09T02:11:27.663Z,19.02
2023-02-09T02:13:55.394Z,18.02
2023-02-09T02:16:46.616Z,18.90
2023-02-09T02:19:44.711Z,19.75
2023-02-09T02:22:42.237Z,18.95
2023-02-09T02:25:44.197Z,18.20
2023-02-09T02:28:31.941Z,19.40
2023-02-09T02:31:21.694Z,18.83
2023-02-09T02:33:58.948Z,19.83
2023-02-09T02:36:32.787Z,19.33
2023-02-09T02:39:07.314Z,19.75
2023-02-09T02:41:55.853Z,19.70
2023-02-09T02:44:26.780Z,20.20
2023-02-09T02:46:58.528Z,19.75
2023-02-09T02:49:34.506Z,19.30
2023-02-09T02:52:05.251Z,19.92
2023-02-09T02:54:37.710Z,21.63
2023-02-09T02:57:10.818Z,18.95
2023-02-09T02:59:44.009Z,20.98
2023-02-09T03:02:16.187Z,21.23
2023-02-09T03:04:47.048Z,22.00
2023-02-09T03:07:14.748Z,19.95
2023-02-09T03:09:49.946Z,18.90
2023-02-09T03:12:33.381Z,19.25
2023-02-09T03:15:15.045Z,20.67
2023-02-09T03:21:35.041Z,21.23
2023-02-09T03:24:06.356Z,20.77
2023-02-09T03:26:43.507Z,21.00
2023-02-09T03:29:14.133Z,20.33
2023-02-09T03:31:42.349Z,20.88
2023-02-09T03:34:11.064Z,22.15
2023-02-09T03:36:42.126Z,20.30
2023-02-09T03:39:10.119Z,18.75
2023-02-09T03:41:38.117Z,20.73
2023-02-09T03:44:23.528Z,21.45
2023-02-09T03:46:51.314Z,20.88
2023-02-09T03:49:19.195Z,21.00
2023-02-09T03:51:48.223Z,21.38
2023-02-09T03:54:15.955Z,21.58
2023-02-09T03:56:43.701Z,20.20
2023-02-09T03:59:11.535Z,21.95
2023-02-09T04:01:39.270Z,22.40
2023-02-09T04:04:07.244Z,21.48
2023-02-09T04:06:35.950Z,21.83
2023-02-09T04:09:06.244Z,21.58
2023-02-09T04:11:34.096Z,21.88
2023-02-09T04:14:01.865Z,20.58
2023-02-09T04:16:29.629Z,21.45
2023-02-09T04:18:57.371Z,22.25
2023-02-09T04:21:25.482Z,19.00
2023-02-09T04:23:53.318Z,21.52
2023-02-09T04:26:22.353Z,21.95
2023-02-09T04:28:50.152Z,22.55
2023-02-09T04:31:18.028Z,22.50
2023-02-09T04:33:45.866Z,22.05
2023-02-09T04:36:13.560Z,23.27
2023-02-09T04:38:41.244Z,21.52
2023-02-09T04:41:09.803Z,20.63
2023-02-09T04:43:38.879Z,22.65
2023-02-09T04:46:06.724Z,23.40
2023-02-09T04:48:34.538Z,22.80
2023-02-09T04:51:02.215Z,22.80
2023-02-09T04:53:29.942Z,20.20
2023-02-09T04:55:57.692Z,21.88
2023-02-09T04:58:42.668Z,23.05
2023-02-09T05:01:15.141Z,20.45
2023-02-09T05:03:43.528Z,22.33
2023-02-09T05:06:11.232Z,24.27
2023-02-09T05:08:38.907Z,23.27
2023-02-09T05:11:06.782Z,23.73
2023-02-09T05:13:34.518Z,23.92
2023-02-09T05:16:06.408Z,23.17
2023-02-09T05:18:36.183Z,23.13
2023-02-09T05:21:03.939Z,23.15
2023-02-09T05:23:31.961Z,24.08
2023-02-09T05:26:00.135Z,24.60
2023-02-09T05:28:28.065Z,21.33
2023-02-09T05:30:55.856Z,23.98
2023-02-09T05:33:24.404Z,24.17
2023-02-09T05:35:55.656Z,24.38
2023-02-09T05:38:23.858Z,25.05
2023-02-09T05:40:51.702Z,26.92
2023-02-09T05:43:19.522Z,24.70
2023-02-09T05:45:47.530Z,24.38
2023-02-09T05:48:15.201Z,26.73
2023-02-09T05:50:42.922Z,25.10
2023-02-09T05:53:14.374Z,25.35
2023-02-09T05:55:43.528Z,24.15
2023-02-09T05:58:11.519Z,26.63
2023-02-09T06:00:39.147Z,24.55
2023-02-09T06:03:06.903Z,25.05
2023-02-09T06:05:34.622Z,25.85
2023-02-09T06:08:02.335Z,26.05
2023-02-09T06:10:31.340Z,26.45
2023-02-09T06:12:59.007Z,27.02
2023-02-09T06:15:26.710Z,26.98
2023-02-09T06:17:54.379Z,24.45
2023-02-09T06:20:22.252Z,25.17
2023-02-09T06:22:49.976Z,25.60
2023-02-09T06:25:18.010Z,26.52
2023-02-09T06:27:47.082Z,24.63
2023-02-09T06:30:15.241Z,25.27
2023-02-09T06:32:42.998Z,26.73
2023-02-09T06:35:11.819Z,25.02
2023-02-09T06:37:39.483Z,24.73
2023-02-09T06:40:07.742Z,25.63
2023-02-09T06:42:44.621Z,25.65
2023-02-09T06:45:15.079Z,24.83
2023-02-09T06:47:43.436Z,28.55
2023-02-09T06:50:12.901Z,25.73
2023-02-09T06:52:40.786Z,27.40
2023-02-09T06:55:09.291Z,26.90
2023-02-09T06:57:37.372Z,25.92
2023-02-09T07:00:06.774Z,25.65
2023-02-09T07:02:35.900Z,26.33
2023-02-09T07:05:03.692Z,27.50
2023-02-09T07:07:31.409Z,25.00
2023-02-09T07:09:59.083Z,25.95
2023-02-09T07:12:26.812Z,27.80
2023-02-09T07:14:55.176Z,26.58
2023-02-09T07:17:23.011Z,26.35
2023-02-09T07:19:52.142Z,25.25
2023-02-09T07:22:19.865Z,26.50
2023-02-09T07:24:47.526Z,28.33
2023-02-09T07:27:15.712Z,26.95
2023-02-09T07:29:43.543Z,26.58
2023-02-09T07:32:11.811Z,28.08
2023-02-09T07:34:39.616Z,28.20
2023-02-09T07:37:08.725Z,27.10
2023-02-09T07:39:36.638Z,27.27
2023-02-09T07:42:04.469Z,27.90
2023-02-09T07:44:32.180Z,26.15
2023-02-09T07:46:59.907Z,28.75
2023-02-09T07:49:27.712Z,30.60
2023-02-09T07:51:55.389Z,28.67
2023-02-09T07:54:24.380Z,30.20
2023-02-09T07:56:52.087Z,31.15
2023-02-09T07:59:19.786Z,34.55
2023-02-09T08:01:47.559Z,32.20
2023-02-09T08:04:15.290Z,29.80
2023-02-09T08:06:45.249Z,31.20
2023-02-09T08:09:16.570Z,31.48
2023-02-09T08:11:54.262Z,30.23
2023-02-09T08:14:26.155Z,31.65
2023-02-09T08:17:18.303Z,30.60
2023-02-09T08:19:47.536Z,31.92
2023-02-09T08:22:15.503Z,30.48
2023-02-09T08:24:43.713Z,31.05
2023-02-09T08:27:13.089Z,32.72
2023-02-09T08:29:41.028Z,29.60
2023-02-09T08:32:08.731Z,28.95
2023-02-09T08:34:42.690Z,31.08
2023-02-09T08:37:10.382Z,28.33
2023-02-09T08:39:38.066Z,23.70
2023-02-09T08:42:05.757Z,23.15
2023-02-09T08:44:35.178Z,21.67
2023-02-09T08:47:03.034Z,19.33
2023-02-09T08:49:30.773Z,21.52
2023-02-09T08:51:58.448Z,20.88
2023-02-09T08:54:26.899Z,22.55
2023-02-09T08:56:54.810Z,22.10
2023-02-09T08:59:23.516Z,22.38
2023-02-09T09:01:53.424Z,22.10
2023-02-09T09:04:21.897Z,20.63
2023-02-09T09:06:49.716Z,23.77
2023-02-09T09:09:17.367Z,21.08
2023-02-09T09:11:45.054Z,25.10
2023-02-09T09:14:12.949Z,22.02
2023-02-09T09:16:40.850Z,21.33
2023-02-09T09:19:09.968Z,23.02
2023-02-09T09:21:37.673Z,21.02
2023-02-09T09:24:06.056Z,22.20
2023-02-09T09:26:35.302Z,22.02
2023-02-09T09:29:03.230Z,23.23
2023-02-09T09:31:33.499Z,22.50
2023-02-09T09:34:01.379Z,22.98
2023-02-09T09:36:30.584Z,22.13
2023-02-09T09:38:59.072Z,21.38
2023-02-09T09:41:31.705Z,22.15
2023-02-09T09:44:01.214Z,22.92
2023-02-09T09:46:36.640Z,23.23
2023-02-09T09:49:05.570Z,20.67
2023-02-09T09:51:40.817Z,22.98
2023-02-09T09:54:15.272Z,21.02
2023-02-09T09:56:43.176Z,23.92
2023-02-09T09:59:17.764Z,23.80
2023-02-09T10:01:45.765Z,21.88
2023-02-09T10:04:16.229Z,21.80
2023-02-09T10:06:47.657Z,22.63
2023-02-09T10:09:27.410Z,22.27
2023-02-09T10:12:19.950Z,21.10
2023-02-09T10:14:47.673Z,20.73
2023-02-09T10:17:15.397Z,21.97
2023-02-09T10:19:43.183Z,23.30
2023-02-09T10:22:14.068Z,22.30
2023-02-09T10:24:42.032Z,23.53
2023-02-09T10:27:15.765Z,21.67
2023-02-09T10:29:43.552Z,21.87
2023-02-09T10:32:17.746Z,19.67
2023-02-09T10:34:48.546Z,20.20
2023-02-09T10:37:22.660Z,21.07
2023-02-09T10:40:00.006Z,20.73
2023-02-09T10:42:30.720Z,19.37
2023-02-09T10:45:04.762Z,22.17
2023-02-09T10:47:32.804Z,21.03
2023-02-09T10:50:15.499Z,21.25
2023-02-09T10:52:54.633Z,21.08
2023-02-09T10:55:26.972Z,22.07
2023-02-09T10:58:06.425Z,20.27
2023-02-09T11:00:38.840Z,18.05
2023-02-09T11:03:17.413Z,19.30
2023-02-09T11:05:47.642Z,19.77
2023-02-09T11:08:22.688Z,17.97
2023-02-09T11:11:01.803Z,18.23
2023-02-09T11:13:32.178Z,17.90
2023-02-09T11:16:25.578Z,18.90
2023-02-09T11:19:01.801Z,17.07
2023-02-09T11:21:41.890Z,18.07
2023-02-09T11:24:21.820Z,20.77
2023-02-09T11:26:54.463Z,20.87
2023-02-09T11:29:29.719Z,19.83
2023-02-09T11:32:11.262Z,20.43
2023-02-09T11:35:01.732Z,20.30
2023-02-09T11:37:36.307Z,19.90
2023-02-09T11:40:22.277Z,20.40
2023-02-09T11:42:57.968Z,22.00
2023-02-09T11:45:31.777Z,20.93
2023-02-09T11:48:06.644Z,19.00
2023-02-09T11:50:41.965Z,23.10
2023-02-09T11:53:19.403Z,22.40
2023-02-09T11:55:53.354Z,22.30
2023-02-09T11:58:41.930Z,24.52
2023-02-09T12:01:20.137Z,22.30
2023-02-09T12:04:00.219Z,22.73
2023-02-09T12:06:33.424Z,23.25
2023-02-09T12:09:09.536Z,23.45
2023-02-09T12:11:48.921Z,23.15
2023-02-09T12:14:36.417Z,23.13
2023-02-09T12:17:12.032Z,22.42
2023-02-09T12:19:44.621Z,21.88
2023-02-09T12:22:49.374Z,20.23
2023-02-09T12:25:40.549Z,21.85
2023-02-09T12:28:18.018Z,20.67
2023-02-09T12:31:03.525Z,21.63
2023-02-09T12:33:34.289Z,21.60
2023-02-09T12:36:05.066Z,20.10
2023-02-09T12:38:49.316Z,21.80
2023-02-09T12:41:18.968Z,21.65
2023-02-09T12:43:49.414Z,20.60
2023-02-09T12:46:22.461Z,19.40
2023-02-09T12:49:20.569Z,21.33
2023-02-09T12:51:54.957Z,20.52
2023-02-09T12:54:35.755Z,19.77
2023-02-09T12:57:52.237Z,19.20
2023-02-09T13:00:53.956Z,22.52
2023-02-09T13:03:24.296Z,22.25
2023-02-09T13:05:54.928Z,24.30
2023-02-09T13:08:33.062Z,23.55
2023-02-09T13:11:06.110Z,22.42
2023-02-09T13:13:54.561Z,22.00
2023-02-09T13:16:54.853Z,22.45
2023-02-09T13:19:47.761Z,21.73
2023-02-09T13:22:36.123Z,20.73
2023-02-09T13:25:14.589Z,22.45
2023-02-09T13:27:47.146Z,22.02
2023-02-09T13:30:25.070Z,20.95
2023-02-09T13:33:02.963Z,22.02
2023-02-09T13:35:35.457Z,21.85
2023-02-09T13:38:16.677Z,21.17
2023-02-09T13:40:47.733Z,21.13
2023-02-09T13:43:21.914Z,20.88
2023-02-09T13:45:51.284Z,21.55
2023-02-09T13:48:25.001Z,21.60
2023-02-09T13:50:53.978Z,20.60
2023-02-09T13:53:24.930Z,21.67
2023-02-09T13:55:55.443Z,20.45
2023-02-09T13:58:26.977Z,20.85
2023-02-09T14:00:57.199Z,23.83
2023-02-09T14:03:29.896Z,20.83
2023-02-09T14:06:02.295Z,19.42
2023-02-09T14:08:33.399Z,21.30
2023-02-09T14:11:13.673Z,20.63
2023-02-09T14:13:45.222Z,22.73
2023-02-09T14:16:16.596Z,20.10
2023-02-09T14:18:51.344Z,20.88
2023-02-09T14:21:24.902Z,22.17
2023-02-09T14:24:17.735Z,19.83
2023-02-09T14:26:52.192Z,21.63
2023-02-09T14:29:23.870Z,21.80
2023-02-09T14:31:54.298Z,22.52
2023-02-09T14:34:31.150Z,22.85
2023-02-09T14:37:01.114Z,22.10
2023-02-09T14:39:31.326Z,23.17
2023-02-09T14:42:18.189Z,23.25
2023-02-09T14:44:48.569Z,22.33
2023-02-09T14:47:31.708Z,20.17
2023-02-09T14:50:00.883Z,21.80
2023-02-09T14:52:32.618Z,20.77
2023-02-09T14:55:04.526Z,22.00
2023-02-09T14:57:35.999Z,22.65
2023-02-09T15:00:15.409Z,22.73
2023-02-09T15:02:43.934Z,22.70
2023-02-09T15:05:13.493Z,23.30
2023-02-09T15:07:44.669Z,23.00
2023-02-09T15:10:21.394Z,23.13
2023-02-09T15:12:49.272Z,23.50
2023-02-09T15:15:19.445Z,21.73
2023-02-09T15:17:47.622Z,22.90
2023-02-09T15:20:17.725Z,23.73
2023-02-09T15:22:46.121Z,25.73
2023-02-09T15:25:14.754Z,22.92
2023-02-09T15:27:51.199Z,22.67
2023-02-09T15:30:21.976Z,24.60
2023-02-09T15:32:49.794Z,21.80
2023-02-09T15:35:21.158Z,20.63
2023-02-09T15:37:50.804Z,22.17
2023-02-09T15:40:43.741Z,21.00
2023-02-09T15:43:31.209Z,23.27
2023-02-09T15:46:16.556Z,24.02
2023-02-09T15:48:44.725Z,22.80
2023-02-09T15:51:14.141Z,22.90
2023-02-09T15:53:42.604Z,21.20
2023-02-09T15:56:12.669Z,22.52
2023-02-09T15:58:42.857Z,22.58
2023-02-09T16:01:14.056Z,21.63
2023-02-09T16:03:43.276Z,19.75
2023-02-09T16:06:18.380Z,20.27
2023-02-09T16:08:47.625Z,21.20
2023-02-09T16:11:20.407Z,21.73
2023-02-09T16:13:48.193Z,20.38
2023-02-09T16:16:17.885Z,21.30
2023-02-09T16:18:46.185Z,21.35
2023-02-09T16:21:20.963Z,19.05
2023-02-09T16:23:49.162Z,19.30
2023-02-09T16:26:19.196Z,20.25
2023-02-09T16:28:47.349Z,19.70
2023-02-09T16:31:15.104Z,20.20
2023-02-09T16:33:43.441Z,19.67
2023-02-09T16:36:14.899Z,19.40
2023-02-09T16:38:44.645Z,18.35
2023-02-09T16:41:35.181Z,20.25
2023-02-09T16:44:10.683Z,18.05
2023-02-09T16:46:38.457Z,21.40
2023-02-09T16:49:06.339Z,20.73
2023-02-09T16:51:35.089Z,18.38
2023-02-09T16:54:06.018Z,22.35
2023-02-09T16:56:35.932Z,22.63
2023-02-09T16:59:04.940Z,21.52
2023-02-09T17:01:34.522Z,20.70
2023-02-09T17:04:04.723Z,20.95
2023-02-09T17:06:32.471Z,20.65
2023-02-09T17:09:00.188Z,21.85
2023-02-09T17:11:29.674Z,22.08
2023-02-09T17:13:57.436Z,21.15
2023-02-09T17:16:34.883Z,22.35
2023-02-09T17:19:04.629Z,20.63
2023-02-09T17:21:35.389Z,21.98
2023-02-09T17:24:05.159Z,21.73
2023-02-09T17:26:34.300Z,24.83
2023-02-09T17:29:01.959Z,24.80
2023-02-09T17:31:43.818Z,22.50
2023-02-09T17:34:18.730Z,21.15
2023-02-09T17:36:46.388Z,22.17
2023-02-09T17:39:14.202Z,21.13
2023-02-09T17:41:46.505Z,21.52
2023-02-09T17:44:46.869Z,22.13
2023-02-09T17:47:04.249Z,23.27
2023-02-09T17:49:32.230Z,23.92
2023-02-09T17:52:00.004Z,24.77
2023-02-09T17:54:28.140Z,21.75
2023-02-09T17:56:57.209Z,22.65
2023-02-09T17:59:24.951Z,22.73
2023-02-09T18:01:55.173Z,23.60
2023-02-09T18:04:26.679Z,23.65
2023-02-09T18:06:56.676Z,24.88
2023-02-09T18:09:25.430Z,22.42
2023-02-09T18:12:02.054Z,22.02
2023-02-09T18:14:31.597Z,24.88
2023-02-09T18:16:59.408Z,22.52
2023-02-09T18:19:27.329Z,24.15
2023-02-09T18:21:56.727Z,23.23
2023-02-09T18:24:26.668Z,22.42
2023-02-09T18:26:54.608Z,23.92
2023-02-09T18:29:29.027Z,24.40
2023-02-09T18:31:56.802Z,24.73
2023-02-09T18:34:24.617Z,24.35
2023-02-09T18:36:52.316Z,25.15
2023-02-09T18:39:20.067Z,26.33
2023-02-09T18:41:53.962Z,23.92
2023-02-09T18:44:28.651Z,24.42
2023-02-09T18:46:56.737Z,25.50
2023-02-09T18:49:24.511Z,24.00
2023-02-09T18:51:53.121Z,23.27
2023-02-09T18:54:20.854Z,24.65
2023-02-09T18:56:48.512Z,26.27
2023-02-09T18:59:17.691Z,27.60
2023-02-09T19:01:47.321Z,25.10
2023-02-09T19:04:15.121Z,24.20
2023-02-09T19:06:42.856Z,25.65
2023-02-09T19:09:10.598Z,24.33
2023-02-09T19:11:38.363Z,25.13
2023-02-09T19:14:23.632Z,23.65
2023-02-09T19:16:52.718Z,30.00
2023-02-09T19:19:20.788Z,36.30
2023-02-09T19:21:51.960Z,28.67
2023-02-09T19:24:20.055Z,30.02
2023-02-09T19:26:47.779Z,28.40
2023-02-09T19:29:15.765Z,27.10
2023-02-09T19:31:43.635Z,24.60
2023-02-09T19:34:12.730Z,26.30
2023-02-09T19:36:40.469Z,27.10
2023-02-09T19:39:08.266Z,26.02
2023-02-09T19:41:36.134Z,25.35
2023-02-09T19:44:04.471Z,27.20
2023-02-09T19:46:32.917Z,28.38
2023-02-09T19:49:01.981Z,27.30
2023-02-09T19:51:31.065Z,27.38
2023-02-09T19:53:58.876Z,26.40
2023-02-09T19:56:26.601Z,26.63
2023-02-09T19:58:54.376Z,27.90
2023-02-09T20:01:22.893Z,28.27
2023-02-09T20:03:52.312Z,28.20
2023-02-09T20:06:20.307Z,27.52
2023-02-09T20:08:49.504Z,28.27
2023-02-09T20:11:19.506Z,30.23
2023-02-09T20:13:51.465Z,26.90
2023-02-09T20:16:22.967Z,29.48
2023-02-09T20:18:51.363Z,26.33
2023-02-09T20:21:21.332Z,27.58
2023-02-09T20:23:53.844Z,28.65
2023-02-09T20:26:24.550Z,29.20
2023-02-09T20:28:52.344Z,28.00
2023-02-09T20:31:21.131Z,26.65
2023-02-09T20:33:49.236Z,27.80
2023-02-09T20:36:18.483Z,27.80
2023-02-09T20:38:46.365Z,29.58
2023-02-09T20:41:17.625Z,29.85
2023-02-09T20:44:03.591Z,28.55
2023-02-09T20:46:55.823Z,31.42
2023-02-09T20:49:25.796Z,29.05
2023-02-09T20:51:53.659Z,28.58
2023-02-09T20:54:21.547Z,31.13
2023-02-09T20:56:50.695Z,28.00
2023-02-09T20:59:18.479Z,28.70
2023-02-09T21:01:46.202Z,27.75
2023-02-09T21:04:13.903Z,27.98
2023-02-09T21:06:41.864Z,27.42
2023-02-09T21:09:14.024Z,29.67
2023-02-09T21:11:42.125Z,29.88
2023-02-09T21:14:21.740Z,29.77
2023-02-09T21:16:56.325Z,28.58
2023-02-09T21:19:24.536Z,28.50
2023-02-09T21:21:52.351Z,28.88
2023-02-09T21:24:20.246Z,30.50
2023-02-09T21:26:47.990Z,30.88
2023-02-09T21:29:17.147Z,29.38
2023-02-09T21:31:45.664Z,28.63
2023-02-09T21:34:17.586Z,29.00
2023-02-09T21:36:45.635Z,28.70
2023-02-09T21:39:14.241Z,28.13
2023-02-09T21:41:59.671Z,28.80
2023-02-09T21:44:29.373Z,29.20
2023-02-09T21:46:57.029Z,29.00
2023-02-09T21:49:25.091Z,29.77
2023-02-09T21:51:52.852Z,27.60
2023-02-09T21:54:20.531Z,27.63
2023-02-09T21:56:48.295Z,25.92
2023-02-09T21:59:15.994Z,29.10
2023-02-09T22:01:45.029Z,29.50
2023-02-09T22:04:12.709Z,27.52
2023-02-09T22:06:41.684Z,29.48
2023-02-09T22:09:09.498Z,27.83
2023-02-09T22:11:37.177Z,32.60
2023-02-09T22:14:05.249Z,27.80
2023-02-09T22:16:32.986Z,29.30
2023-02-09T22:19:02.135Z,29.80
2023-02-09T22:21:29.930Z,28.05
2023-02-09T22:23:57.592Z,27.60
2023-02-09T22:26:25.318Z,28.77
2023-02-09T22:28:53.085Z,27.75
2023-02-09T22:31:21.757Z,28.90
2023-02-09T22:33:53.216Z,27.67
2023-02-09T22:36:23.382Z,29.35
2023-02-09T22:38:51.510Z,27.23
2023-02-09T22:41:24.441Z,26.63
2023-02-09T22:43:54.471Z,27.80
2023-02-09T22:46:23.996Z,25.98
2023-02-09T22:48:52.439Z,26.40
2023-02-09T22:51:22.624Z,28.02
2023-02-09T22:53:50.965Z,26.17
2023-02-09T22:56:18.645Z,27.80
2023-02-09T22:58:46.444Z,28.55
2023-02-09T23:01:14.577Z,26.10
2023-02-09T23:03:42.870Z,27.23
2023-02-09T23:06:18.017Z,27.00
2023-02-09T23:08:47.414Z,25.75
2023-02-09T23:11:16.853Z,25.83
2023-02-09T23:13:45.463Z,27.45
2023-02-09T23:16:14.815Z,27.38
2023-02-09T23:18:47.459Z,27.95
2023-02-09T23:21:16.023Z,26.60
2023-02-09T23:23:44.239Z,26.75
2023-02-09T23:26:14.192Z,26.55
2023-02-09T23:28:41.893Z,25.08
2023-02-09T23:31:15.740Z,26.27
2023-02-09T23:33:43.996Z,27.02
2023-02-09T23:36:13.909Z,26.45
2023-02-09T23:38:42.298Z,26.85
2023-02-09T23:41:11.834Z,25.88
2023-02-09T23:43:41.405Z,25.38
2023-02-09T23:46:13.297Z,25.92
2023-02-09T23:48:41.085Z,27.23
2023-02-09T23:51:12.225Z,26.48
2023-02-09T23:53:40.191Z,26.00
2023-02-09T23:56:08.902Z,26.60
2023-02-09T23:58:38.557Z,26.38
